createdAt,value
2018-10-07T00:00:12.475Z,13.30
2018-10-07T00:02:40.803Z,13.30
2018-10-07T00:05:09.176Z,13.30
2018-10-07T00:07:37.505Z,13.30
2018-10-07T00:10:06.148Z,13.30
2018-10-07T00:12:34.519Z,13.20
2018-10-07T00:15:02.924Z,13.20
2018-10-07T00:17:31.302Z,13.20
2018-10-07T00:19:59.674Z,13.20
2018-10-07T00:22:28.029Z,13.20
2018-10-07T00:24:56.427Z,13.20
2018-10-07T00:27:24.773Z,13.20
2018-10-07T00:29:53.180Z,13.20
2018-10-07T00:32:21.504Z,13.20
2018-10-07T00:34:49.870Z,13.20
2018-10-07T00:37:18.189Z,13.20
2018-10-07T00:39:46.556Z,13.20
2018-10-07T00:42:14.880Z,13.20
2018-10-07T00:44:43.239Z,13.20
2018-10-07T00:47:11.578Z,13.20
2018-10-07T00:49:39.960Z,13.30
2018-10-07T00:52:08.288Z,13.30
2018-10-07T00:54:36.636Z,13.30
2018-10-07T00:57:05.021Z,13.20
2018-10-07T00:59:33.352Z,13.20
2018-10-07T01:02:01.715Z,13.20
2018-10-07T01:04:30.040Z,13.20
2018-10-07T01:06:58.651Z,13.20
2018-10-07T01:09:26.977Z,13.20
2018-10-07T01:11:55.355Z,13.20
2018-10-07T01:14:23.680Z,13.20
2018-10-07T01:16:52.149Z,13.20
2018-10-07T01:19:20.476Z,13.10
2018-10-07T01:21:48.906Z,13.20
2018-10-07T01:24:17.255Z,13.20
2018-10-07T01:26:45.641Z,13.10
2018-10-07T01:29:13.939Z,13.10
2018-10-07T01:31:42.300Z,13.10
2018-10-07T01:34:10.613Z,13.10
2018-10-07T01:36:38.956Z,13.10
2018-10-07T01:39:09.257Z,13.20
2018-10-07T01:41:37.685Z,13.20
2018-10-07T01:44:06.052Z,13.20
2018-10-07T01:46:34.390Z,13.20
2018-10-07T01:49:02.700Z,13.20
2018-10-07T01:51:31.047Z,13.20
2018-10-07T01:53:59.392Z,13.30
2018-10-07T01:56:27.740Z,13.30
2018-10-07T01:58:56.092Z,13.20
2018-10-07T02:01:24.459Z,13.30
2018-10-07T02:03:52.813Z,13.30
2018-10-07T02:06:21.186Z,13.30
2018-10-07T02:08:49.487Z,13.20
2018-10-07T02:11:17.835Z,13.20
2018-10-07T02:13:46.217Z,13.20
2018-10-07T02:16:14.540Z,13.20
2018-10-07T02:18:42.868Z,13.10
2018-10-07T02:21:11.216Z,13.10
2018-10-07T02:23:39.533Z,13.10
2018-10-07T02:26:07.900Z,13.10
2018-10-07T02:28:36.220Z,13.00
2018-10-07T02:31:04.578Z,13.00
2018-10-07T02:33:32.903Z,13.00
2018-10-07T02:36:01.258Z,13.00
2018-10-07T02:38:29.575Z,13.00
2018-10-07T02:40:57.921Z,13.00
2018-10-07T02:43:26.231Z,13.00
2018-10-07T02:45:54.547Z,13.00
2018-10-07T02:48:22.888Z,13.00
2018-10-07T02:50:51.240Z,13.00
2018-10-07T02:53:19.617Z,13.00
2018-10-07T02:55:47.972Z,13.00
2018-10-07T02:58:16.371Z,13.00
2018-10-07T03:00:44.692Z,13.00
2018-10-07T03:03:13.040Z,13.00
2018-10-07T03:05:41.364Z,13.00
2018-10-07T03:08:09.721Z,13.00
2018-10-07T03:10:38.036Z,12.90
2018-10-07T03:13:06.393Z,12.90
2018-10-07T03:15:34.704Z,12.80
2018-10-07T03:18:03.178Z,12.80
2018-10-07T03:20:31.483Z,12.80
2018-10-07T03:22:59.816Z,12.80
2018-10-07T03:25:28.136Z,12.70
2018-10-07T03:27:56.477Z,12.70
2018-10-07T03:30:24.805Z,12.60
2018-10-07T03:32:53.176Z,12.60
2018-10-07T03:35:21.497Z,12.50
2018-10-07T03:37:49.857Z,12.50
2018-10-07T03:40:18.177Z,12.40
2018-10-07T03:42:46.524Z,12.40
2018-10-07T03:45:14.840Z,12.30
2018-10-07T03:47:43.188Z,12.30
2018-10-07T03:50:11.509Z,12.30
2018-10-07T03:52:39.860Z,12.20
2018-10-07T03:55:08.203Z,12.20
2018-10-07T03:57:36.551Z,12.20
2018-10-07T04:00:04.912Z,12.20
2018-10-07T04:02:33.265Z,12.10
2018-10-07T04:05:01.596Z,12.10
2018-10-07T04:07:29.950Z,12.10
2018-10-07T04:09:58.268Z,12.10
2018-10-07T04:12:26.621Z,12.10
2018-10-07T04:14:54.935Z,12.20
2018-10-07T04:17:23.279Z,12.20
2018-10-07T04:19:51.584Z,12.20
2018-10-07T04:22:19.901Z,12.30
2018-10-07T04:24:48.320Z,12.30
2018-10-07T04:27:16.632Z,12.40
2018-10-07T04:29:44.971Z,12.40
2018-10-07T04:32:13.304Z,12.40
2018-10-07T04:34:41.656Z,12.40
2018-10-07T04:37:09.980Z,12.40
2018-10-07T04:39:38.336Z,12.40
2018-10-07T04:42:06.716Z,12.30
2018-10-07T04:44:41.753Z,12.30
2018-10-07T04:47:10.069Z,12.30
2018-10-07T04:49:38.410Z,12.20
2018-10-07T04:52:06.869Z,12.20
2018-10-07T04:54:35.219Z,12.20
2018-10-07T04:57:03.542Z,12.10
2018-10-07T04:59:31.896Z,12.10
2018-10-07T05:02:00.228Z,12.10
2018-10-07T05:04:28.568Z,12.10
2018-10-07T05:06:56.915Z,12.00
2018-10-07T05:09:25.309Z,12.00
2018-10-07T05:11:56.863Z,12.00
2018-10-07T05:14:25.274Z,11.90
2018-10-07T05:16:53.984Z,11.90
2018-10-07T05:19:22.400Z,11.90
2018-10-07T05:21:50.749Z,11.80
2018-10-07T05:24:19.178Z,11.80
2018-10-07T05:26:47.552Z,11.80
2018-10-07T05:29:15.928Z,11.70
2018-10-07T05:31:44.260Z,11.70
2018-10-07T05:34:12.704Z,11.60
2018-10-07T05:36:41.036Z,11.60
2018-10-07T05:39:10.770Z,11.50
2018-10-07T05:41:39.140Z,11.40
2018-10-07T05:44:07.539Z,11.40
2018-10-07T05:46:35.838Z,11.30
2018-10-07T05:49:04.280Z,11.30
2018-10-07T05:51:32.628Z,11.30
2018-10-07T05:54:00.998Z,11.30
2018-10-07T05:56:29.317Z,11.20
2018-10-07T05:58:58.523Z,11.20
2018-10-07T06:01:43.925Z,11.20
2018-10-07T06:04:23.664Z,11.20
2018-10-07T06:06:53.288Z,11.20
2018-10-07T06:09:27.680Z,11.10
2018-10-07T06:12:00.519Z,11.10
2018-10-07T06:14:40.101Z,11.10
2018-10-07T06:17:08.473Z,11.00
2018-10-07T06:19:36.880Z,11.00
2018-10-07T06:22:05.937Z,11.10
2018-10-07T06:24:35.084Z,11.00
2018-10-07T06:27:03.953Z,11.00
2018-10-07T06:29:32.331Z,11.00
2018-10-07T06:32:00.668Z,11.00
2018-10-07T06:34:29.056Z,11.00
2018-10-07T06:36:57.416Z,11.00
2018-10-07T06:39:25.812Z,11.00
2018-10-07T06:41:54.741Z,11.10
2018-10-07T06:44:23.159Z,11.10
2018-10-07T06:46:51.476Z,11.20
2018-10-07T06:49:20.084Z,11.30
2018-10-07T06:51:48.565Z,11.40
2018-10-07T06:54:17.061Z,11.50
2018-10-07T06:56:45.416Z,11.70
2018-10-07T06:59:13.758Z,11.80
2018-10-07T07:01:42.173Z,12.00
2018-10-07T07:04:10.497Z,12.10
2018-10-07T07:06:38.948Z,12.20
2018-10-07T07:09:08.743Z,12.30
2018-10-07T07:11:37.252Z,12.40
2018-10-07T07:14:05.740Z,12.50
2018-10-07T07:16:34.324Z,12.60
2018-10-07T07:19:02.666Z,12.60
2018-10-07T07:21:31.032Z,12.70
2018-10-07T07:23:59.373Z,12.70
2018-10-07T07:26:27.780Z,12.80
2018-10-07T07:28:56.095Z,12.80
2018-10-07T07:31:24.491Z,12.90
2018-10-07T07:33:52.785Z,13.00
2018-10-07T07:36:21.124Z,13.10
2018-10-07T07:38:49.461Z,13.20
2018-10-07T07:41:17.812Z,13.40
2018-10-07T07:43:46.129Z,13.50
2018-10-07T07:46:14.537Z,13.70
2018-10-07T07:48:42.873Z,13.80
2018-10-07T07:51:11.220Z,14.00
2018-10-07T07:53:39.572Z,14.10
2018-10-07T07:56:07.951Z,14.10
2018-10-07T07:58:36.536Z,14.20
2018-10-07T08:01:04.968Z,14.40
2018-10-07T08:03:33.411Z,14.50
2018-10-07T08:06:01.823Z,14.60
2018-10-07T08:08:30.145Z,14.70
2018-10-07T08:10:58.511Z,14.90
2018-10-07T08:13:26.828Z,15.00
2018-10-07T08:15:55.184Z,15.10
2018-10-07T08:18:23.510Z,15.30
2018-10-07T08:20:51.857Z,15.40
2018-10-07T08:23:20.195Z,15.60
2018-10-07T08:25:48.555Z,15.70
2018-10-07T08:28:16.872Z,15.80
2018-10-07T08:30:45.234Z,15.90
2018-10-07T08:33:13.544Z,16.10
2018-10-07T08:35:41.889Z,16.20
2018-10-07T08:38:10.232Z,16.30
2018-10-07T08:40:38.648Z,16.40
2018-10-07T08:43:07.076Z,16.50
2018-10-07T08:45:35.419Z,16.60
2018-10-07T08:48:03.800Z,16.70
2018-10-07T08:50:32.116Z,16.80
2018-10-07T08:53:01.273Z,16.90
2018-10-07T08:55:29.592Z,17.00
2018-10-07T08:57:57.996Z,17.10
2018-10-07T09:00:26.344Z,17.10
2018-10-07T09:02:54.699Z,17.20
2018-10-07T09:05:23.008Z,17.30
2018-10-07T09:07:51.432Z,17.30
2018-10-07T09:10:19.736Z,17.30
2018-10-07T09:12:48.089Z,17.50
2018-10-07T09:15:16.412Z,17.50
2018-10-07T09:17:44.816Z,17.60
2018-10-07T09:20:13.120Z,17.70
2018-10-07T09:22:41.468Z,17.80
2018-10-07T09:25:09.796Z,17.90
2018-10-07T09:27:38.429Z,18.00
2018-10-07T09:30:06.912Z,18.00
2018-10-07T09:32:35.495Z,18.00
2018-10-07T09:35:03.717Z,18.00
2018-10-07T09:37:32.056Z,17.90
2018-10-07T09:40:01.017Z,17.80
2018-10-07T09:42:29.393Z,17.80
2018-10-07T09:44:57.721Z,17.80
2018-10-07T09:47:26.120Z,17.90
2018-10-07T09:49:54.450Z,17.80
2018-10-07T09:52:22.855Z,17.80
2018-10-07T09:54:51.123Z,17.80
2018-10-07T09:57:19.466Z,17.80
2018-10-07T09:59:47.781Z,17.80
2018-10-07T10:02:16.124Z,17.80
2018-10-07T10:04:44.440Z,17.80
2018-10-07T10:07:12.851Z,17.70
2018-10-07T10:09:41.344Z,17.80
2018-10-07T10:12:09.864Z,17.80
2018-10-07T10:14:38.184Z,17.90
2018-10-07T10:17:08.546Z,18.00
2018-10-07T10:19:44.599Z,18.00
2018-10-07T10:24:26.799Z,18.10
2018-10-07T10:27:05.357Z,18.10
2018-10-07T10:29:36.651Z,18.10
2018-10-07T10:32:10.675Z,18.10
2018-10-07T10:37:04.989Z,18.10
2018-10-07T10:39:43.272Z,17.90
2018-10-07T10:42:19.996Z,17.90
2018-10-07T10:44:50.216Z,17.80
2018-10-07T10:47:25.124Z,17.70
2018-10-07T10:51:04.028Z,17.70
2018-10-07T10:53:42.524Z,17.70
2018-10-07T10:56:19.864Z,17.70
2018-10-07T10:58:54.149Z,17.70
2018-10-07T11:01:27.797Z,17.80
2018-10-07T11:04:03.981Z,18.00
2018-10-07T11:06:40.689Z,18.00
2018-10-07T11:09:15.602Z,18.20
2018-10-07T11:11:54.254Z,18.30
2018-10-07T11:15:31.756Z,18.40
2018-10-07T11:18:10.036Z,18.50
2018-10-07T11:23:57.133Z,18.50
2018-10-07T11:27:00.808Z,18.50
2018-10-07T11:29:43.972Z,18.60
2018-10-07T11:32:22.377Z,18.70
2018-10-07T11:37:05.045Z,18.80
2018-10-07T11:41:45.520Z,18.90
2018-10-07T11:45:20.679Z,18.90
2018-10-07T11:47:58.907Z,18.90
2018-10-07T11:50:34.982Z,19.10
2018-10-07T11:53:40.545Z,19.20
2018-10-07T11:56:08.869Z,19.30
2018-10-07T11:58:37.215Z,19.40
2018-10-07T12:01:05.625Z,19.40
2018-10-07T12:03:33.976Z,19.40
2018-10-07T12:06:02.288Z,19.40
2018-10-07T12:08:30.665Z,19.40
2018-10-07T12:10:59.032Z,19.40
2018-10-07T12:13:27.377Z,19.40
2018-10-07T12:15:55.712Z,19.40
2018-10-07T12:18:24.052Z,19.40
2018-10-07T12:20:52.369Z,19.40
2018-10-07T12:23:20.704Z,19.50
2018-10-07T12:25:49.060Z,19.60
2018-10-07T12:28:17.369Z,19.60
2018-10-07T12:30:45.713Z,19.60
2018-10-07T12:33:14.034Z,19.70
2018-10-07T12:35:42.368Z,19.70
2018-10-07T12:38:10.692Z,19.70
2018-10-07T12:40:39.074Z,19.70
2018-10-07T12:43:07.401Z,19.70
2018-10-07T12:45:35.754Z,19.70
2018-10-07T12:48:04.065Z,19.80
2018-10-07T12:50:32.412Z,19.80
2018-10-07T12:53:01.964Z,19.90
2018-10-07T12:55:30.308Z,19.90
2018-10-07T12:57:58.612Z,19.90
2018-10-07T13:00:26.997Z,19.90
2018-10-07T13:02:55.388Z,20.00
2018-10-07T13:05:24.093Z,20.00
2018-10-07T13:07:52.500Z,20.00
2018-10-07T13:10:20.860Z,20.10
2018-10-07T13:12:49.160Z,20.10
2018-10-07T13:15:17.541Z,20.10
2018-10-07T13:17:45.896Z,20.10
2018-10-07T13:20:14.244Z,20.10
2018-10-07T13:22:42.550Z,20.20
2018-10-07T13:25:10.896Z,20.10
2018-10-07T13:27:39.220Z,20.10
2018-10-07T13:30:07.656Z,20.20
2018-10-07T13:32:35.971Z,20.10
2018-10-07T13:35:04.452Z,20.10
2018-10-07T13:37:32.764Z,20.10
2018-10-07T13:40:01.176Z,20.00
2018-10-07T13:42:29.455Z,20.00
2018-10-07T13:44:57.792Z,20.00
2018-10-07T13:47:26.108Z,20.00
2018-10-07T13:49:54.452Z,20.00
2018-10-07T13:52:22.793Z,20.00
2018-10-07T13:54:51.172Z,20.10
2018-10-07T13:57:19.496Z,20.00
2018-10-07T13:59:47.832Z,20.10
2018-10-07T14:02:16.148Z,20.10
2018-10-07T14:04:44.452Z,20.00
2018-10-07T14:07:12.808Z,20.10
2018-10-07T14:09:41.116Z,20.00
2018-10-07T14:12:09.468Z,20.10
2018-10-07T14:14:37.776Z,20.10
2018-10-07T14:17:06.141Z,20.10
2018-10-07T14:19:34.460Z,20.10
2018-10-07T14:22:02.816Z,20.00
2018-10-07T14:24:31.132Z,20.00
2018-10-07T14:26:59.474Z,20.00
2018-10-07T14:29:27.788Z,20.00
2018-10-07T14:31:56.124Z,20.10
2018-10-07T14:34:24.436Z,20.00
2018-10-07T14:36:52.785Z,20.00
2018-10-07T14:39:21.159Z,20.00
2018-10-07T14:41:49.489Z,20.00
2018-10-07T14:44:17.801Z,20.00
2018-10-07T14:46:46.163Z,20.00
2018-10-07T14:49:14.541Z,20.00
2018-10-07T14:51:42.848Z,20.00
2018-10-07T14:54:11.177Z,20.00
2018-10-07T14:56:39.559Z,20.00
2018-10-07T14:59:07.873Z,19.90
2018-10-07T15:01:36.216Z,19.90
2018-10-07T15:04:04.524Z,19.90
2018-10-07T15:06:32.879Z,19.90
2018-10-07T15:09:01.205Z,19.90
2018-10-07T15:11:29.567Z,19.80
2018-10-07T15:13:57.867Z,19.80
2018-10-07T15:16:26.215Z,19.80
2018-10-07T15:18:54.532Z,19.80
2018-10-07T15:21:22.867Z,19.80
2018-10-07T15:23:51.243Z,19.70
2018-10-07T15:26:19.564Z,19.70
2018-10-07T15:28:47.896Z,19.70
2018-10-07T15:31:16.257Z,19.60
2018-10-07T15:33:44.568Z,19.60
2018-10-07T15:36:13.049Z,19.50
2018-10-07T15:38:41.530Z,19.50
2018-10-07T15:41:09.868Z,19.50
2018-10-07T15:43:38.633Z,19.50
2018-10-07T15:46:07.340Z,19.50
2018-10-07T15:48:35.661Z,19.40
2018-10-07T15:51:04.015Z,19.30
2018-10-07T15:53:32.353Z,19.30
2018-10-07T15:56:00.762Z,19.30
2018-10-07T15:58:29.109Z,19.30
2018-10-07T16:00:57.600Z,19.20
2018-10-07T16:03:26.220Z,19.20
2018-10-07T16:05:54.537Z,19.10
2018-10-07T16:08:22.888Z,19.10
2018-10-07T16:10:51.200Z,19.10
2018-10-07T16:13:19.540Z,19.00
2018-10-07T16:15:47.939Z,18.90
2018-10-07T16:18:16.297Z,18.90
2018-10-07T16:20:44.612Z,18.80
2018-10-07T16:23:12.983Z,18.70
2018-10-07T16:25:41.309Z,18.60
2018-10-07T16:28:09.649Z,18.60
2018-10-07T16:30:37.961Z,18.50
2018-10-07T16:33:06.385Z,18.50
2018-10-07T16:35:34.707Z,18.40
2018-10-07T16:38:03.082Z,18.30
2018-10-07T16:40:31.404Z,18.30
2018-10-07T16:42:59.767Z,18.20
2018-10-07T16:45:28.092Z,18.10
2018-10-07T16:47:56.456Z,18.10
2018-10-07T16:50:24.776Z,18.00
2018-10-07T16:52:53.137Z,17.90
2018-10-07T16:55:21.460Z,17.90
2018-10-07T16:57:49.860Z,17.80
2018-10-07T17:00:18.185Z,17.70
2018-10-07T17:02:46.561Z,17.60
2018-10-07T17:05:14.905Z,17.50
2018-10-07T17:07:43.284Z,17.50
2018-10-07T17:10:11.597Z,17.40
2018-10-07T17:12:39.945Z,17.30
2018-10-07T17:15:08.276Z,17.30
2018-10-07T17:17:36.632Z,17.20
2018-10-07T17:20:04.964Z,17.10
2018-10-07T17:22:33.319Z,17.10
2018-10-07T17:25:01.638Z,17.00
2018-10-07T17:27:29.945Z,17.00
2018-10-07T17:29:58.300Z,16.90
2018-10-07T17:32:26.615Z,16.90
2018-10-07T17:34:54.970Z,16.80
2018-10-07T17:37:23.566Z,16.70
2018-10-07T17:39:52.028Z,16.70
2018-10-07T17:42:20.338Z,16.70
2018-10-07T17:44:48.682Z,16.60
2018-10-07T17:47:17.005Z,16.60
2018-10-07T17:49:45.376Z,16.50
2018-10-07T17:52:13.716Z,16.40
2018-10-07T17:54:42.138Z,16.40
2018-10-07T17:57:10.441Z,16.30
2018-10-07T17:59:38.796Z,16.30
2018-10-07T18:02:07.257Z,16.20
2018-10-07T18:04:36.256Z,16.20
2018-10-07T18:07:04.581Z,16.10
2018-10-07T18:09:32.948Z,16.10
2018-10-07T18:12:01.279Z,16.00
2018-10-07T18:14:29.646Z,16.00
2018-10-07T18:16:57.965Z,16.00
2018-10-07T18:19:26.317Z,15.90
2018-10-07T18:21:54.673Z,15.80
2018-10-07T18:24:22.988Z,15.80
2018-10-07T18:26:51.312Z,15.80
2018-10-07T18:29:19.662Z,15.80
2018-10-07T18:32:07.914Z,15.70
2018-10-07T18:35:10.227Z,15.60
2018-10-07T18:38:26.032Z,15.60
2018-10-07T18:40:54.434Z,15.50
2018-10-07T18:43:22.803Z,15.40
2018-10-07T18:45:51.112Z,15.40
2018-10-07T18:48:19.573Z,15.30
2018-10-07T18:50:47.902Z,15.30
2018-10-07T18:53:16.232Z,15.30
2018-10-07T18:55:44.596Z,15.30
2018-10-07T18:58:12.929Z,15.20
2018-10-07T19:00:41.356Z,15.20
2018-10-07T19:03:09.705Z,15.20
2018-10-07T19:05:38.234Z,15.20
2018-10-07T19:08:06.724Z,15.10
2018-10-07T19:10:35.121Z,15.10
2018-10-07T19:13:03.435Z,15.10
2018-10-07T19:15:32.435Z,15.00
2018-10-07T19:18:00.812Z,15.00
2018-10-07T19:20:29.176Z,15.00
2018-10-07T19:22:57.529Z,15.00
2018-10-07T19:25:25.886Z,14.90
2018-10-07T19:27:54.199Z,14.90
2018-10-07T19:30:22.551Z,14.90
2018-10-07T19:32:50.877Z,14.80
2018-10-07T19:35:19.260Z,14.80
2018-10-07T19:37:47.569Z,14.80
2018-10-07T19:40:15.937Z,14.70
2018-10-07T19:42:44.746Z,14.70
2018-10-07T19:45:13.446Z,14.70
2018-10-07T19:47:43.068Z,14.60
2018-10-07T19:50:11.448Z,14.60
2018-10-07T19:52:39.843Z,14.60
2018-10-07T19:55:08.173Z,14.60
2018-10-07T19:57:36.522Z,14.50
2018-10-07T20:00:05.028Z,14.50
2018-10-07T20:02:33.341Z,14.50
2018-10-07T20:05:01.764Z,14.50
2018-10-07T20:07:32.180Z,14.50
2018-10-07T20:10:00.536Z,14.50
2018-10-07T20:12:28.868Z,14.50
2018-10-07T20:14:57.250Z,14.40
2018-10-07T20:17:25.592Z,14.40
2018-10-07T20:19:53.952Z,14.40
2018-10-07T20:22:22.273Z,14.30
2018-10-07T20:24:50.625Z,14.20
2018-10-07T20:27:18.964Z,14.20
2018-10-07T20:29:47.320Z,14.20
2018-10-07T20:32:15.717Z,14.10
2018-10-07T20:34:44.028Z,14.10
2018-10-07T20:37:12.424Z,14.00
2018-10-07T20:39:40.808Z,14.00
2018-10-07T20:42:09.184Z,13.90
2018-10-07T20:44:37.512Z,13.90
2018-10-07T20:47:05.892Z,13.80
2018-10-07T20:49:34.203Z,13.80
2018-10-07T20:52:02.575Z,13.70
2018-10-07T20:54:30.891Z,13.70
2018-10-07T20:56:59.280Z,13.60
2018-10-07T20:59:27.598Z,13.50
2018-10-07T21:01:55.952Z,13.50
2018-10-07T21:04:27.778Z,13.40
2018-10-07T21:06:56.140Z,13.40
2018-10-07T21:09:24.447Z,13.30
2018-10-07T21:11:52.801Z,13.20
2018-10-07T21:14:21.114Z,13.20
2018-10-07T21:16:49.453Z,13.10
2018-10-07T21:19:17.760Z,13.10
2018-10-07T21:21:46.156Z,13.00
2018-10-07T21:24:14.504Z,13.00
2018-10-07T21:26:42.873Z,12.90
2018-10-07T21:29:11.205Z,12.90
2018-10-07T21:31:39.560Z,12.80
2018-10-07T21:34:07.905Z,12.80
2018-10-07T21:36:36.240Z,12.70
2018-10-07T21:39:06.644Z,12.70
2018-10-07T21:41:35.158Z,12.70
2018-10-07T21:44:03.408Z,12.60
2018-10-07T21:46:31.808Z,12.60
2018-10-07T21:49:00.085Z,12.60
2018-10-07T21:51:28.431Z,12.60
2018-10-07T21:53:56.790Z,12.50
2018-10-07T21:56:25.139Z,12.50
2018-10-07T21:58:53.463Z,12.40
2018-10-07T22:01:28.860Z,12.40
2018-10-07T22:03:57.165Z,12.40
2018-10-07T22:06:25.572Z,12.40
2018-10-07T22:08:53.936Z,12.40
2018-10-07T22:11:22.248Z,12.30
2018-10-07T22:13:50.619Z,12.20
2018-10-07T22:16:18.936Z,12.20
2018-10-07T22:18:47.284Z,12.10
2018-10-07T22:21:15.598Z,12.10
2018-10-07T22:23:43.963Z,12.00
2018-10-07T22:26:12.317Z,12.00
2018-10-07T22:28:41.033Z,12.00
2018-10-07T22:31:09.356Z,11.90
2018-10-07T22:33:37.701Z,11.90
2018-10-07T22:36:06.044Z,11.80
2018-10-07T22:38:34.392Z,11.80
2018-10-07T22:41:02.711Z,11.70
2018-10-07T22:43:31.060Z,11.70
2018-10-07T22:45:59.365Z,11.70
2018-10-07T22:48:27.708Z,11.70
2018-10-07T22:50:56.029Z,11.60
2018-10-07T22:53:24.381Z,11.50
2018-10-07T22:55:52.700Z,11.50
2018-10-07T22:58:21.053Z,11.50
2018-10-07T23:00:49.363Z,11.50
2018-10-07T23:03:17.703Z,11.40
2018-10-07T23:05:46.028Z,11.40
2018-10-07T23:08:14.372Z,11.30
2018-10-07T23:10:42.732Z,11.30
2018-10-07T23:13:11.098Z,11.30
2018-10-07T23:15:39.408Z,11.30
2018-10-07T23:18:07.764Z,11.20
2018-10-07T23:20:36.073Z,11.20
2018-10-07T23:23:04.420Z,11.10
2018-10-07T23:25:32.772Z,11.10
2018-10-07T23:28:01.123Z,11.10
2018-10-07T23:30:29.435Z,11.10
2018-10-07T23:32:57.788Z,11.10
2018-10-07T23:35:26.100Z,11.10
2018-10-07T23:37:54.544Z,11.00
2018-10-07T23:40:22.876Z,11.00
2018-10-07T23:42:51.216Z,11.00
2018-10-07T23:45:19.517Z,11.00
2018-10-07T23:47:47.880Z,10.90
2018-10-07T23:50:16.197Z,10.90
2018-10-07T23:52:44.524Z,10.90
2018-10-07T23:55:12.860Z,10.90
2018-10-07T23:57:41.177Z,10.80
